createdAt,value
2019-02-18T00:01:18.138Z,99.80
2019-02-18T00:03:48.461Z,99.90
2019-02-18T00:06:19.587Z,99.90
2019-02-18T00:08:49.930Z,99.90
2019-02-18T00:11:20.310Z,99.90
2019-02-18T00:13:50.649Z,99.90
2019-02-18T00:16:21.029Z,99.90
2019-02-18T00:18:52.445Z,99.90
2019-02-18T00:21:22.885Z,99.90
2019-02-18T00:23:53.214Z,99.90
2019-02-18T00:26:24.561Z,99.60
2019-02-18T00:28:54.893Z,99.90
2019-02-18T00:31:25.363Z,99.60
2019-02-18T00:33:56.057Z,99.70
2019-02-18T00:36:26.410Z,99.80
2019-02-18T00:38:56.847Z,99.90
2019-02-18T00:41:27.221Z,99.90
2019-02-18T00:43:57.554Z,99.90
2019-02-18T00:46:27.917Z,99.60
2019-02-18T00:48:58.253Z,99.70
2019-02-18T00:51:28.608Z,99.80
2019-02-18T00:53:59.075Z,99.90
2019-02-18T00:56:29.774Z,99.90
2019-02-18T00:59:00.141Z,99.90
2019-02-18T01:01:30.477Z,99.90
2019-02-18T01:04:00.837Z,99.90
2019-02-18T01:06:31.165Z,99.90
2019-02-18T01:09:01.525Z,99.90
2019-02-18T01:11:33.153Z,99.90
2019-02-18T01:14:03.523Z,99.90
2019-02-18T01:16:33.857Z,99.90
2019-02-18T01:19:04.305Z,99.90
2019-02-18T01:21:34.633Z,99.90
2019-02-18T01:24:05.017Z,99.90
2019-02-18T01:26:35.347Z,99.90
2019-02-18T01:29:05.705Z,99.90
2019-02-18T01:31:36.181Z,99.90
2019-02-18T01:34:06.526Z,99.90
2019-02-18T01:36:37.052Z,99.90
2019-02-18T01:39:07.581Z,99.90
2019-02-18T01:41:38.316Z,99.90
2019-02-18T01:44:08.657Z,99.90
2019-02-18T01:46:39.012Z,99.40
2019-02-18T01:49:09.345Z,99.90
2019-02-18T01:51:39.697Z,99.90
2019-02-18T01:54:10.058Z,99.90
2019-02-18T01:56:40.398Z,99.90
2019-02-18T01:59:10.749Z,99.80
2019-02-18T02:01:41.125Z,99.90
2019-02-18T02:04:11.481Z,99.90
2019-02-18T02:06:41.805Z,99.90
2019-02-18T02:09:13.793Z,99.20
2019-02-18T02:11:44.157Z,99.80
2019-02-18T02:14:14.601Z,99.90
2019-02-18T02:16:44.937Z,99.90
2019-02-18T02:19:15.314Z,99.90
2019-02-18T02:21:45.653Z,99.90
2019-02-18T02:24:16.101Z,99.80
2019-02-18T02:26:46.461Z,99.90
2019-02-18T02:29:16.837Z,99.50
2019-02-18T02:31:47.321Z,99.60
2019-02-18T02:34:17.722Z,99.90
2019-02-18T02:36:48.077Z,99.90
2019-02-18T02:39:18.422Z,99.90
2019-02-18T02:41:48.798Z,99.90
2019-02-18T02:44:19.167Z,99.90
2019-02-18T02:46:49.619Z,99.90
2019-02-18T02:49:19.961Z,99.90
2019-02-18T02:51:50.410Z,99.90
2019-02-18T02:54:20.748Z,99.90
2019-02-18T02:56:51.237Z,99.90
2019-02-18T02:59:21.577Z,99.90
2019-02-18T03:01:52.026Z,99.90
2019-02-18T03:04:22.360Z,99.90
2019-02-18T03:06:53.489Z,99.90
2019-02-18T03:09:23.825Z,99.90
2019-02-18T03:11:54.201Z,99.60
2019-02-18T03:14:24.533Z,99.90
2019-02-18T03:16:54.917Z,99.90
2019-02-18T03:19:25.250Z,99.90
2019-02-18T03:21:55.609Z,99.30
2019-02-18T03:24:25.961Z,99.20
2019-02-18T03:26:56.287Z,99.90
2019-02-18T03:30:03.422Z,99.90
2019-02-18T03:32:39.959Z,99.90
2019-02-18T03:35:10.313Z,99.90
2019-02-18T03:37:40.673Z,99.90
2019-02-18T03:40:11.029Z,99.90
2019-02-18T03:42:41.373Z,99.90
2019-02-18T03:45:11.734Z,99.90
2019-02-18T03:47:42.069Z,99.90
2019-02-18T03:50:12.628Z,99.90
2019-02-18T03:52:42.965Z,99.90
2019-02-18T03:55:13.323Z,99.90
2019-02-18T03:57:43.665Z,99.90
2019-02-18T04:00:14.057Z,99.90
2019-02-18T04:02:44.676Z,99.90
2019-02-18T04:05:15.233Z,99.60
2019-02-18T04:07:46.729Z,99.60
2019-02-18T04:10:17.217Z,99.90
2019-02-18T04:12:47.568Z,99.90
2019-02-18T04:15:18.120Z,99.90
2019-02-18T04:17:48.444Z,99.90
2019-02-18T04:20:18.809Z,99.90
2019-02-18T04:22:50.241Z,99.90
2019-02-18T04:25:20.581Z,99.90
2019-02-18T04:27:50.935Z,99.80
2019-02-18T04:30:21.261Z,99.90
2019-02-18T04:32:51.789Z,99.90
2019-02-18T04:35:22.121Z,99.90
2019-02-18T04:37:52.489Z,99.90
2019-02-18T04:40:22.818Z,99.90
2019-02-18T04:42:53.201Z,99.90
2019-02-18T04:45:25.155Z,99.90
2019-02-18T04:47:55.513Z,99.90
2019-02-18T04:50:25.849Z,99.90
2019-02-18T04:52:56.294Z,99.90
2019-02-18T04:55:26.629Z,99.90
2019-02-18T04:57:57.009Z,99.90
2019-02-18T05:00:27.361Z,99.90
2019-02-18T05:02:57.726Z,99.90
2019-02-18T05:05:28.105Z,99.90
2019-02-18T05:07:58.473Z,99.90
2019-02-18T05:10:28.858Z,99.90
2019-02-18T05:12:59.185Z,99.90
2019-02-18T05:15:29.549Z,99.90
2019-02-18T05:17:59.898Z,99.90
2019-02-18T05:20:30.281Z,99.90
2019-02-18T05:23:01.551Z,99.90
2019-02-18T05:25:31.913Z,99.90
2019-02-18T05:28:02.258Z,99.90
2019-02-18T05:30:32.626Z,99.90
2019-02-18T05:33:03.032Z,99.90
2019-02-18T05:35:33.361Z,99.90
2019-02-18T05:38:03.745Z,99.90
2019-02-18T05:40:34.126Z,99.90
2019-02-18T05:43:04.460Z,99.90
2019-02-18T05:45:34.903Z,99.90
2019-02-18T05:48:05.361Z,99.60
2019-02-18T05:50:35.723Z,99.50
2019-02-18T05:53:06.461Z,99.80
2019-02-18T05:55:36.789Z,99.90
2019-02-18T05:58:07.202Z,99.50
2019-02-18T06:00:37.557Z,99.50
2019-02-18T06:03:07.909Z,99.90
2019-02-18T06:05:38.254Z,99.70
2019-02-18T06:08:08.764Z,99.70
2019-02-18T06:10:39.141Z,99.90
2019-02-18T06:13:09.470Z,99.90
2019-02-18T06:15:39.848Z,99.90
2019-02-18T06:18:10.509Z,99.90
2019-02-18T06:20:41.178Z,99.80
2019-02-18T06:23:11.520Z,99.90
2019-02-18T06:25:41.886Z,99.90
2019-02-18T06:28:12.239Z,99.90
2019-02-18T06:30:42.601Z,99.80
2019-02-18T06:33:12.994Z,99.50
2019-02-18T06:35:43.396Z,99.90
2019-02-18T06:38:13.747Z,99.90
2019-02-18T06:40:44.118Z,99.90
2019-02-18T06:43:14.510Z,99.60
2019-02-18T06:46:01.120Z,99.90
2019-02-18T06:48:33.344Z,99.90
2019-02-18T06:51:03.721Z,99.90
2019-02-18T06:53:34.072Z,99.70
2019-02-18T06:56:04.839Z,99.40
2019-02-18T06:58:50.930Z,99.90
2019-02-18T07:01:35.417Z,99.90
2019-02-18T07:04:16.353Z,99.90
2019-02-18T07:07:11.714Z,99.90
2019-02-18T07:09:55.610Z,99.90
2019-02-18T07:12:31.397Z,99.90
2019-02-18T07:15:01.753Z,99.90
2019-02-18T07:17:32.115Z,99.90
2019-02-18T07:20:02.481Z,99.90
2019-02-18T07:22:32.965Z,99.90
2019-02-18T07:25:03.318Z,99.90
2019-02-18T07:27:33.686Z,99.90
2019-02-18T07:30:04.165Z,99.90
2019-02-18T07:32:34.491Z,99.90
2019-02-18T07:35:04.994Z,99.90
2019-02-18T07:37:35.352Z,99.90
2019-02-18T07:40:06.970Z,99.90
2019-02-18T07:42:37.296Z,99.90
2019-02-18T07:45:08.625Z,99.90
2019-02-18T07:47:38.979Z,99.90
2019-02-18T07:50:20.720Z,99.90
2019-02-18T07:52:46.353Z,99.90
2019-02-18T07:55:16.685Z,99.90
2019-02-18T07:57:47.680Z,99.90
2019-02-18T08:00:18.045Z,99.90
2019-02-18T08:02:48.449Z,99.90
2019-02-18T08:05:18.772Z,99.90
2019-02-18T08:07:49.130Z,99.90
2019-02-18T08:10:19.477Z,99.90
2019-02-18T08:12:49.838Z,99.60
2019-02-18T08:15:20.293Z,99.70
2019-02-18T08:17:50.630Z,99.20
2019-02-18T08:20:21.004Z,99.50
2019-02-18T08:22:51.341Z,98.80
2019-02-18T08:25:21.741Z,97.00
2019-02-18T08:27:52.101Z,94.20
2019-02-18T08:30:22.421Z,89.90
2019-02-18T08:32:52.778Z,86.90
2019-02-18T08:35:23.149Z,80.60
2019-02-18T08:37:53.542Z,73.00
2019-02-18T08:40:23.882Z,68.30
2019-02-18T08:42:54.237Z,66.80
2019-02-18T08:45:26.045Z,67.80
2019-02-18T08:47:56.409Z,68.00
2019-02-18T08:50:26.745Z,65.60
2019-02-18T08:52:57.137Z,66.40
2019-02-18T08:55:27.485Z,70.50
2019-02-18T08:57:58.067Z,70.90
2019-02-18T09:00:29.554Z,70.20
2019-02-18T09:02:59.929Z,63.20
2019-02-18T09:05:30.290Z,61.40
2019-02-18T09:08:00.653Z,64.00
2019-02-18T09:10:33.940Z,65.10
2019-02-18T09:13:02.970Z,68.00
2019-02-18T09:15:33.312Z,67.90
2019-02-18T09:18:03.750Z,68.70
2019-02-18T09:20:35.029Z,66.40
2019-02-18T09:23:30.605Z,67.00
2019-02-18T09:26:02.637Z,63.50
2019-02-18T09:28:33.033Z,62.70
2019-02-18T09:31:03.383Z,56.40
2019-02-18T09:33:33.769Z,56.10
2019-02-18T09:36:04.153Z,55.10
2019-02-18T09:38:34.530Z,51.90
2019-02-18T09:41:05.465Z,56.40
2019-02-18T09:43:35.805Z,55.00
2019-02-18T09:46:06.205Z,54.50
2019-02-18T09:48:36.881Z,56.00
2019-02-18T09:51:07.273Z,57.20
2019-02-18T09:53:37.608Z,54.40
2019-02-18T09:56:08.073Z,50.10
2019-02-18T09:58:38.765Z,47.00
2019-02-18T10:01:09.433Z,51.10
2019-02-18T10:03:39.776Z,48.90
2019-02-18T10:06:10.149Z,50.80
2019-02-18T10:08:40.486Z,52.40
2019-02-18T10:11:10.901Z,53.50
2019-02-18T10:13:41.239Z,54.80
2019-02-18T10:16:11.901Z,52.50
2019-02-18T10:18:42.249Z,56.10
2019-02-18T10:21:14.145Z,56.40
2019-02-18T10:23:46.214Z,55.20
2019-02-18T10:26:16.597Z,57.30
2019-02-18T10:28:46.957Z,57.60
2019-02-18T10:31:17.345Z,56.80
2019-02-18T10:33:47.685Z,57.20
2019-02-18T10:36:18.474Z,55.70
2019-02-18T10:38:48.877Z,56.90
2019-02-18T10:41:19.398Z,57.60
2019-02-18T10:43:49.773Z,56.30
2019-02-18T10:46:20.162Z,56.50
2019-02-18T10:48:50.589Z,56.60
2019-02-18T10:51:21.402Z,55.70
2019-02-18T10:53:51.745Z,54.20
2019-02-18T10:56:22.113Z,56.70
2019-02-18T10:58:52.481Z,53.30
2019-02-18T11:01:22.875Z,56.70
2019-02-18T11:03:53.214Z,54.00
2019-02-18T11:06:23.581Z,55.50
2019-02-18T11:08:54.295Z,56.60
2019-02-18T11:11:24.627Z,54.90
2019-02-18T11:13:54.996Z,57.40
2019-02-18T11:16:25.385Z,58.20
2019-02-18T11:18:56.058Z,60.00
2019-02-18T11:21:27.769Z,56.10
2019-02-18T11:23:58.141Z,57.70
2019-02-18T11:26:28.505Z,59.90
2019-02-18T11:28:58.878Z,59.30
2019-02-18T11:31:29.517Z,57.00
2019-02-18T11:33:59.925Z,59.30
2019-02-18T11:36:30.257Z,58.20
2019-02-18T11:39:00.767Z,62.00
2019-02-18T11:41:33.143Z,60.00
2019-02-18T11:44:03.862Z,59.90
2019-02-18T11:46:34.518Z,59.90
2019-02-18T11:49:04.898Z,58.50
2019-02-18T11:51:35.241Z,57.90
2019-02-18T11:54:06.029Z,66.10
2019-02-18T11:56:37.176Z,59.30
2019-02-18T11:59:07.561Z,58.60
2019-02-18T12:01:37.922Z,58.30
2019-02-18T12:04:08.307Z,64.20
2019-02-18T12:06:38.666Z,67.50
2019-02-18T12:09:09.126Z,55.50
2019-02-18T12:11:39.495Z,58.80
2019-02-18T12:14:09.835Z,57.80
2019-02-18T12:16:40.288Z,57.00
2019-02-18T12:19:10.629Z,57.60
2019-02-18T12:21:41.018Z,60.50
2019-02-18T12:24:11.365Z,60.50
2019-02-18T12:26:41.733Z,60.70
2019-02-18T12:29:12.097Z,61.30
2019-02-18T12:31:42.432Z,55.20
2019-02-18T12:34:12.785Z,57.20
2019-02-18T12:36:43.154Z,57.30
2019-02-18T12:39:15.421Z,56.80
2019-02-18T12:41:48.734Z,57.20
2019-02-18T12:44:17.851Z,56.40
2019-02-18T12:46:48.265Z,56.40
2019-02-18T12:49:20.305Z,56.20
2019-02-18T12:51:50.941Z,57.60
2019-02-18T12:54:21.318Z,58.60
2019-02-18T12:56:51.757Z,56.30
2019-02-18T12:59:22.157Z,56.20
2019-02-18T13:01:52.508Z,56.70
2019-02-18T13:04:23.291Z,56.70
2019-02-18T13:06:54.021Z,56.30
2019-02-18T13:09:24.353Z,57.60
2019-02-18T13:11:58.917Z,56.20
2019-02-18T13:14:26.673Z,56.30
2019-02-18T13:16:57.041Z,57.60
2019-02-18T13:19:27.430Z,58.10
2019-02-18T13:21:57.798Z,57.10
2019-02-18T13:24:28.129Z,57.40
2019-02-18T13:26:58.593Z,56.20
2019-02-18T13:29:28.933Z,56.40
2019-02-18T13:31:59.293Z,56.20
2019-02-18T13:34:29.633Z,55.00
2019-02-18T13:37:02.197Z,56.90
2019-02-18T13:39:32.618Z,57.20
2019-02-18T13:42:07.473Z,57.70
2019-02-18T13:44:34.954Z,56.70
2019-02-18T13:47:05.427Z,57.00
2019-02-18T13:49:35.769Z,58.40
2019-02-18T13:52:06.178Z,58.70
2019-02-18T13:54:36.509Z,56.90
2019-02-18T13:57:10.095Z,57.70
2019-02-18T13:59:38.937Z,58.80
2019-02-18T14:02:09.417Z,56.10
2019-02-18T14:04:40.425Z,56.20
2019-02-18T14:07:10.806Z,58.20
2019-02-18T14:09:41.157Z,57.40
2019-02-18T14:12:16.229Z,57.50
2019-02-18T14:14:43.753Z,57.50
2019-02-18T14:17:14.555Z,56.60
2019-02-18T14:19:44.902Z,56.60
2019-02-18T14:22:15.285Z,56.60
2019-02-18T14:24:45.621Z,57.80
2019-02-18T14:27:16.089Z,56.70
2019-02-18T14:29:46.434Z,57.80
2019-02-18T14:32:16.799Z,56.80
2019-02-18T14:34:47.161Z,57.90
2019-02-18T14:37:17.505Z,58.60
2019-02-18T14:39:47.953Z,58.60
2019-02-18T14:42:24.345Z,58.40
2019-02-18T14:44:51.837Z,57.90
2019-02-18T14:47:22.353Z,57.00
2019-02-18T14:49:52.729Z,57.70
2019-02-18T14:52:23.261Z,58.50
2019-02-18T14:54:53.625Z,58.80
2019-02-18T14:57:24.377Z,60.60
2019-02-18T14:59:54.845Z,59.70
2019-02-18T15:02:25.180Z,60.50
2019-02-18T15:04:55.553Z,59.40
2019-02-18T15:07:26.220Z,59.10
2019-02-18T15:09:56.558Z,60.20
2019-02-18T15:12:32.931Z,60.80
2019-02-18T15:14:59.197Z,61.00
2019-02-18T15:17:29.582Z,61.20
2019-02-18T15:19:59.929Z,62.20
2019-02-18T15:22:30.329Z,63.40
2019-02-18T15:25:01.361Z,63.60
2019-02-18T15:27:31.763Z,63.40
2019-02-18T15:30:02.457Z,63.90
2019-02-18T15:32:32.928Z,63.70
2019-02-18T15:35:03.621Z,64.20
2019-02-18T15:37:34.373Z,64.40
2019-02-18T15:40:06.992Z,64.80
2019-02-18T15:42:42.232Z,65.40
2019-02-18T15:45:11.098Z,66.10
2019-02-18T15:47:42.119Z,66.50
2019-02-18T15:50:12.952Z,66.90
2019-02-18T15:52:43.382Z,67.90
2019-02-18T15:55:13.825Z,69.60
2019-02-18T15:57:44.385Z,70.20
2019-02-18T16:00:17.800Z,71.40
2019-02-18T16:02:48.841Z,71.50
2019-02-18T16:05:19.223Z,72.00
2019-02-18T16:07:49.593Z,72.50
2019-02-18T16:10:19.989Z,72.80
2019-02-18T16:12:51.209Z,74.00
2019-02-18T16:15:21.732Z,75.40
2019-02-18T16:18:11.166Z,75.30
2019-02-18T16:20:42.402Z,75.80
2019-02-18T16:23:13.322Z,77.30
2019-02-18T16:25:43.668Z,77.40
2019-02-18T16:28:14.432Z,78.60
2019-02-18T16:30:44.845Z,79.60
2019-02-18T16:33:15.404Z,80.10
2019-02-18T16:35:46.359Z,81.50
2019-02-18T16:38:16.741Z,80.70
2019-02-18T16:40:47.098Z,81.80
2019-02-18T16:43:17.464Z,81.80
2019-02-18T16:45:47.805Z,83.50
2019-02-18T16:48:19.533Z,84.60
2019-02-18T16:50:49.905Z,84.40
2019-02-18T16:53:21.048Z,84.90
2019-02-18T16:55:51.374Z,85.10
2019-02-18T16:58:21.769Z,85.60
2019-02-18T17:00:57.542Z,84.80
2019-02-18T17:03:24.117Z,85.80
2019-02-18T17:05:54.749Z,86.00
2019-02-18T17:08:25.207Z,87.00
2019-02-18T17:10:55.542Z,88.20
2019-02-18T17:13:25.927Z,87.40
2019-02-18T17:15:56.266Z,86.60
2019-02-18T17:18:26.617Z,87.20
2019-02-18T17:20:57.291Z,88.10
2019-02-18T17:23:27.657Z,89.60
2019-02-18T17:25:57.984Z,88.10
2019-02-18T17:28:28.386Z,88.80
2019-02-18T17:30:58.757Z,89.40
2019-02-18T17:33:29.205Z,90.70
2019-02-18T17:35:59.537Z,90.20
2019-02-18T17:38:29.914Z,90.20
2019-02-18T17:41:01.490Z,90.20
2019-02-18T17:43:32.338Z,90.10
2019-02-18T17:46:02.678Z,89.50
2019-02-18T17:48:33.456Z,91.20
2019-02-18T17:51:03.797Z,90.40
2019-02-18T17:53:34.272Z,90.80
2019-02-18T17:56:04.605Z,91.60
2019-02-18T17:58:35.381Z,91.10
2019-02-18T18:01:05.838Z,91.00
2019-02-18T18:03:36.285Z,90.90
2019-02-18T18:06:06.609Z,91.00
2019-02-18T18:08:37.061Z,91.10
2019-02-18T18:11:07.433Z,91.20
2019-02-18T18:13:37.785Z,91.50
2019-02-18T18:16:08.173Z,92.10
2019-02-18T18:18:38.521Z,91.70
2019-02-18T18:21:08.880Z,92.40
2019-02-18T18:23:39.217Z,93.10
2019-02-18T18:26:09.577Z,92.20
2019-02-18T18:28:40.682Z,92.90
2019-02-18T18:31:11.053Z,92.10
2019-02-18T18:33:41.386Z,92.10
2019-02-18T18:36:11.764Z,92.70
2019-02-18T18:38:43.221Z,92.10
2019-02-18T18:41:13.745Z,93.00
2019-02-18T18:43:44.093Z,92.50
2019-02-18T18:46:14.886Z,94.10
2019-02-18T18:48:45.714Z,93.30
2019-02-18T18:51:16.152Z,93.60
2019-02-18T18:53:46.488Z,93.90
2019-02-18T18:56:16.941Z,93.40
2019-02-18T18:58:47.293Z,93.80
2019-02-18T19:01:17.654Z,93.80
2019-02-18T19:03:48.111Z,94.90
2019-02-18T19:06:18.446Z,94.90
2019-02-18T19:08:50.184Z,93.90
2019-02-18T19:11:20.512Z,94.50
2019-02-18T19:13:51.001Z,94.70
2019-02-18T19:16:21.346Z,94.50
2019-02-18T19:18:51.697Z,93.60
2019-02-18T19:21:22.398Z,93.90
2019-02-18T19:23:52.721Z,94.80
2019-02-18T19:26:23.157Z,95.10
2019-02-18T19:28:53.844Z,94.80
2019-02-18T19:31:24.224Z,93.70
2019-02-18T19:33:54.567Z,94.00
2019-02-18T19:36:24.924Z,94.40
2019-02-18T19:38:55.261Z,95.90
2019-02-18T19:41:25.673Z,95.70
2019-02-18T19:43:56.058Z,96.00
2019-02-18T19:46:26.401Z,96.20
2019-02-18T19:48:57.723Z,95.90
2019-02-18T19:51:28.097Z,96.10
2019-02-18T19:53:58.457Z,95.00
2019-02-18T19:56:28.793Z,94.60
2019-02-18T19:58:59.169Z,94.50
2019-02-18T20:01:29.690Z,96.00
2019-02-18T20:04:00.085Z,95.30
2019-02-18T20:06:30.415Z,96.20
2019-02-18T20:09:00.790Z,95.80
2019-02-18T20:11:32.773Z,96.40
2019-02-18T20:14:05.233Z,96.60
2019-02-18T20:16:36.646Z,96.70
2019-02-18T20:19:07.105Z,96.50
2019-02-18T20:21:37.461Z,96.30
2019-02-18T20:24:07.936Z,96.30
2019-02-18T20:26:38.573Z,96.50
2019-02-18T20:29:08.966Z,97.10
2019-02-18T20:31:40.813Z,97.10
2019-02-18T20:34:11.487Z,96.10
2019-02-18T20:36:41.905Z,96.70
2019-02-18T20:39:12.756Z,97.20
2019-02-18T20:41:43.419Z,96.00
2019-02-18T20:44:14.200Z,95.20
2019-02-18T20:46:44.557Z,95.00
2019-02-18T20:49:15.022Z,96.10
2019-02-18T20:51:45.456Z,96.20
2019-02-18T20:54:15.917Z,97.00
2019-02-18T20:56:46.268Z,97.00
2019-02-18T20:59:16.655Z,97.70
2019-02-18T21:01:47.033Z,97.50
2019-02-18T21:04:17.398Z,97.40
2019-02-18T21:06:48.061Z,97.70
2019-02-18T21:09:18.424Z,97.50
2019-02-18T21:11:48.805Z,98.20
2019-02-18T21:14:19.154Z,97.90
2019-02-18T21:16:49.561Z,97.80
2019-02-18T21:19:19.957Z,96.90
2019-02-18T21:21:50.493Z,97.70
2019-02-18T21:24:20.852Z,97.80
2019-02-18T21:26:51.233Z,98.00
2019-02-18T21:29:21.577Z,98.20
2019-02-18T21:32:03.668Z,97.60
2019-02-18T21:34:33.997Z,97.10
2019-02-18T21:37:04.492Z,97.90
2019-02-18T21:39:36.570Z,98.00
2019-02-18T21:42:06.982Z,98.10
2019-02-18T21:44:37.653Z,97.70
2019-02-18T21:47:08.028Z,97.20
2019-02-18T21:49:38.410Z,97.80
2019-02-18T21:52:08.769Z,97.40
2019-02-18T21:54:39.232Z,97.40
2019-02-18T21:57:09.623Z,97.50
2019-02-18T21:59:40.124Z,98.00
2019-02-18T22:02:10.778Z,98.20
2019-02-18T22:04:41.233Z,98.20
2019-02-18T22:07:11.593Z,98.20
2019-02-18T22:09:42.070Z,97.30
2019-02-18T22:12:12.746Z,97.40
2019-02-18T22:14:43.244Z,97.70
2019-02-18T22:17:13.605Z,98.20
2019-02-18T22:19:44.117Z,98.80
2019-02-18T22:22:14.465Z,98.30
2019-02-18T22:24:44.838Z,98.30
2019-02-18T22:27:15.639Z,98.20
2019-02-18T22:29:45.997Z,98.40
2019-02-18T22:32:16.469Z,98.50
2019-02-18T22:34:46.837Z,97.80
2019-02-18T22:37:17.304Z,98.90
2019-02-18T22:39:47.661Z,98.60
2019-02-18T22:42:18.113Z,97.40
2019-02-18T22:44:48.467Z,97.60
2019-02-18T22:47:18.841Z,98.80
2019-02-18T22:49:49.669Z,98.50
2019-02-18T22:52:20.029Z,97.70
2019-02-18T22:54:50.808Z,96.90
2019-02-18T22:57:21.157Z,97.40
2019-02-18T22:59:51.576Z,98.30
2019-02-18T23:02:21.933Z,98.20
2019-02-18T23:04:52.334Z,97.00
2019-02-18T23:07:22.693Z,97.80
2019-02-18T23:09:53.572Z,98.20
2019-02-18T23:12:23.925Z,97.90
2019-02-18T23:14:54.320Z,98.10
2019-02-18T23:17:24.745Z,98.40
2019-02-18T23:19:55.568Z,98.10
2019-02-18T23:22:25.916Z,98.20
2019-02-18T23:24:56.389Z,97.80
2019-02-18T23:27:26.756Z,98.40
2019-02-18T23:29:57.137Z,98.50
2019-02-18T23:32:27.485Z,98.20
2019-02-18T23:34:57.868Z,97.80
2019-02-18T23:37:28.212Z,97.90
2019-02-18T23:40:00.223Z,97.70
2019-02-18T23:42:30.696Z,97.80
2019-02-18T23:45:01.093Z,97.70
2019-02-18T23:47:43.549Z,97.10
2019-02-18T23:50:13.958Z,97.20
2019-02-18T23:52:44.320Z,97.60
2019-02-18T23:55:14.702Z,97.90
2019-02-18T23:57:45.080Z,98.20
